Time;durP1;ratioP1;P1;durP2;ratioP2;P2;SDS_P1;SDS_P2;PMS_P1;PMS_P2;Temp;Humidity;BMP_temperature;BMP_pressure;BME280_temperature;BME280_humidity;BME280_pressure;Samples;Min_cycle;Max_cycle;Signal;HPM_P1;HPM_P2
2022/09/15 00:00:46;;;;;;;8.93;2.77;;;;;;;;;;4892229;29;20456;-44
2022/09/15 00:03:13;;;;;;;8.67;2.63;;;;;;;;;;4895752;29;20299;-44
2022/09/15 00:05:39;;;;;;;9.37;2.50;;;;;;;;;;4892366;29;20482;-44
2022/09/15 00:08:05;;;;;;;9.13;2.90;;;;;;;;;;4897361;29;20195;-43
2022/09/15 00:10:31;;;;;;;6.70;2.57;;;;;;;;;;4891459;29;20411;-44
2022/09/15 00:12:57;;;;;;;9.40;2.57;;;;;;;;;;4891061;29;20853;-44
2022/09/15 00:15:23;;;;;;;9.37;2.67;;;;;;;;;;4894195;29;20490;-43
2022/09/15 00:17:51;;;;;;;12.43;3.23;;;;;;;;;;4892671;29;20192;-44
2022/09/15 00:20:18;;;;;;;10.67;3.17;;;;;;;;;;4896391;29;20701;-44
2022/09/15 00:22:44;;;;;;;6.60;2.50;;;;;;;;;;4894553;29;20593;-44
2022/09/15 00:25:10;;;;;;;12.27;3.07;;;;;;;;;;4894836;29;20652;-44
2022/09/15 00:27:37;;;;;;;11.73;3.07;;;;;;;;;;4885577;29;20279;-44
2022/09/15 00:30:03;;;;;;;10.40;2.97;;;;;;;;;;4887958;29;20482;-44
2022/09/15 00:32:29;;;;;;;14.70;3.20;;;;;;;;;;4886438;29;21019;-43
2022/09/15 00:34:55;;;;;;;8.30;2.83;;;;;;;;;;4895479;29;20561;-44
2022/09/15 00:37:21;;;;;;;8.73;2.37;;;;;;;;;;4888961;29;20254;-44
2022/09/15 00:39:48;;;;;;;7.37;2.27;;;;;;;;;;4890475;29;20578;-44
2022/09/15 00:42:15;;;;;;;7.07;2.53;;;;;;;;;;4887752;28;20822;-44
2022/09/15 00:44:47;;;;;;;11.50;2.70;;;;;;;;;;4889916;29;20827;-44
2022/09/15 00:47:13;;;;;;;12.20;2.80;;;;;;;;;;4879710;29;20189;-44
2022/09/15 00:49:40;;;;;;;8.87;2.80;;;;;;;;;;4888087;29;20658;-43
2022/09/15 00:52:32;;;;;;;6.03;2.23;;;;;;;;;;4887332;29;20260;-44
2022/09/15 00:55:07;;;;;;;10.63;2.80;;;;;;;;;;4901487;28;20192;-44
2022/09/15 00:57:39;;;;;;;9.63;3.07;;;;;;;;;;4886773;29;20372;-44
2022/09/15 01:00:08;;;;;;;9.67;2.70;;;;;;;;;;4893156;29;20183;-44
2022/09/15 01:02:35;;;;;;;12.60;2.83;;;;;;;;;;4892367;29;20195;-43
2022/09/15 01:05:04;;;;;;;11.87;2.90;;;;;;;;;;4895432;29;20240;-44
2022/09/15 01:07:34;;;;;;;11.53;3.50;;;;;;;;;;4893392;29;20188;-44
2022/09/15 01:10:03;;;;;;;9.20;2.93;;;;;;;;;;4893098;29;20403;-44
2022/09/15 01:12:29;;;;;;;11.63;4.07;;;;;;;;;;4895526;29;20604;-43
2022/09/15 01:14:55;;;;;;;12.07;4.87;;;;;;;;;;4894522;29;20863;-43
2022/09/15 01:17:21;;;;;;;9.97;4.13;;;;;;;;;;4887372;29;20602;-43
2022/09/15 01:19:50;;;;;;;10.87;4.07;;;;;;;;;;4888417;29;20180;-44
2022/09/15 01:22:16;;;;;;;9.07;3.20;;;;;;;;;;4901745;28;20192;-44
2022/09/15 01:25:05;;;;;;;11.40;4.10;;;;;;;;;;4893615;29;20192;-44
2022/09/15 01:27:51;;;;;;;14.47;4.93;;;;;;;;;;4890218;28;20200;-44
2022/09/15 01:30:21;;;;;;;11.83;4.67;;;;;;;;;;4889216;29;20180;-43
2022/09/15 01:33:02;;;;;;;12.13;4.70;;;;;;;;;;4890889;29;20369;-44
2022/09/15 01:35:34;;;;;;;11.70;3.80;;;;;;;;;;4892253;29;20765;-44
2022/09/15 01:38:19;;;;;;;9.30;4.30;;;;;;;;;;4891604;29;20195;-44
2022/09/15 01:40:49;;;;;;;13.17;3.93;;;;;;;;;;4891904;29;20423;-44
2022/09/15 01:43:16;;;;;;;10.83;3.80;;;;;;;;;;4891086;29;20269;-44
2022/09/15 01:45:43;;;;;;;12.07;4.20;;;;;;;;;;4889755;29;20966;-43
2022/09/15 01:48:10;;;;;;;12.87;4.10;;;;;;;;;;4881131;29;20239;-44
2022/09/15 01:50:46;;;;;;;15.70;3.80;;;;;;;;;;4883790;29;20176;-44
2022/09/15 01:53:14;;;;;;;13.40;3.97;;;;;;;;;;4891629;29;20195;-44
2022/09/15 01:55:43;;;;;;;11.13;3.40;;;;;;;;;;4885226;29;20964;-44
2022/09/15 01:58:09;;;;;;;7.90;2.80;;;;;;;;;;4891313;29;20426;-44
2022/09/15 02:00:38;;;;;;;12.40;3.10;;;;;;;;;;4889704;29;20188;-44
2022/09/15 02:03:19;;;;;;;8.30;2.43;;;;;;;;;;4888688;29;20374;-44
2022/09/15 02:05:50;;;;;;;11.27;2.70;;;;;;;;;;4891026;29;20497;-44
2022/09/15 02:08:24;;;;;;;10.07;2.77;;;;;;;;;;4884913;29;20767;-44
2022/09/15 02:11:00;;;;;;;12.90;2.43;;;;;;;;;;4887955;28;20374;-44
2022/09/15 02:13:38;;;;;;;10.30;2.57;;;;;;;;;;4887198;29;20525;-44
2022/09/15 02:16:11;;;;;;;8.90;2.87;;;;;;;;;;4887416;29;20271;-44
2022/09/15 02:18:57;;;;;;;7.60;2.50;;;;;;;;;;4889443;28;20219;-44
2022/09/15 02:21:28;;;;;;;7.97;2.60;;;;;;;;;;4897431;28;20188;-44
2022/09/15 02:23:57;;;;;;;11.07;2.87;;;;;;;;;;4893185;29;20184;-44
2022/09/15 02:26:25;;;;;;;13.60;2.77;;;;;;;;;;4893891;29;20177;-44
2022/09/15 02:28:53;;;;;;;8.80;2.50;;;;;;;;;;4894533;29;20686;-44
2022/09/15 02:31:20;;;;;;;9.40;2.50;;;;;;;;;;4893953;29;20552;-44
2022/09/15 02:33:53;;;;;;;9.60;2.37;;;;;;;;;;4889552;29;20201;-44
2022/09/15 02:36:21;;;;;;;7.93;2.20;;;;;;;;;;4886516;29;20597;-44
2022/09/15 02:38:49;;;;;;;9.73;2.40;;;;;;;;;;4889874;29;20575;-44
2022/09/15 02:41:16;;;;;;;7.70;2.73;;;;;;;;;;4882169;29;20283;-44
2022/09/15 02:43:45;;;;;;;7.63;2.60;;;;;;;;;;4882971;29;20566;-44
2022/09/15 02:46:12;;;;;;;9.50;2.57;;;;;;;;;;4888522;29;20878;-44
2022/09/15 02:48:38;;;;;;;7.80;2.40;;;;;;;;;;4892074;29;20493;-44
2022/09/15 02:51:04;;;;;;;11.37;2.47;;;;;;;;;;4898995;29;20188;-44
2022/09/15 02:53:30;;;;;;;9.30;2.60;;;;;;;;;;4893421;29;20866;-44
2022/09/15 02:55:56;;;;;;;7.87;2.37;;;;;;;;;;4898245;29;20171;-44
2022/09/15 02:58:23;;;;;;;10.23;2.70;;;;;;;;;;4895928;29;20310;-44
2022/09/15 03:00:49;;;;;;;8.03;2.70;;;;;;;;;;4898251;29;20180;-44
2022/09/15 03:03:17;;;;;;;7.80;2.20;;;;;;;;;;4893285;29;20196;-44
2022/09/15 03:05:43;;;;;;;9.77;2.70;;;;;;;;;;4896845;29;20184;-44
2022/09/15 03:08:09;;;;;;;8.80;2.90;;;;;;;;;;4894365;29;20722;-44
2022/09/15 03:10:36;;;;;;;10.07;2.60;;;;;;;;;;4895396;29;20431;-44
2022/09/15 03:13:02;;;;;;;10.50;2.60;;;;;;;;;;4897298;29;20678;-44
2022/09/15 03:15:28;;;;;;;9.00;2.20;;;;;;;;;;4890860;29;20184;-44
2022/09/15 03:17:54;;;;;;;7.97;2.50;;;;;;;;;;4894683;29;21043;-44
2022/09/15 03:20:29;;;;;;;7.87;2.43;;;;;;;;;;4889928;28;20713;-43
2022/09/15 03:22:55;;;;;;;12.80;3.10;;;;;;;;;;4893013;29;20172;-45
2022/09/15 03:25:22;;;;;;;11.90;2.80;;;;;;;;;;4894942;29;20266;-44
2022/09/15 03:27:48;;;;;;;9.80;3.03;;;;;;;;;;4894474;29;20192;-43
2022/09/15 03:30:14;;;;;;;10.10;3.00;;;;;;;;;;4891175;29;20258;-44
2022/09/15 03:32:40;;;;;;;15.80;3.00;;;;;;;;;;4891863;29;20209;-45
2022/09/15 03:35:07;;;;;;;8.43;2.90;;;;;;;;;;4891059;29;21538;-43
2022/09/15 03:37:33;;;;;;;12.37;3.30;;;;;;;;;;4892293;29;20715;-43
2022/09/15 03:39:59;;;;;;;10.77;3.13;;;;;;;;;;4891464;29;20180;-43
2022/09/15 03:42:26;;;;;;;10.70;2.70;;;;;;;;;;4891715;29;20969;-44
2022/09/15 03:44:52;;;;;;;11.27;2.80;;;;;;;;;;4892544;29;20279;-44
2022/09/15 03:47:18;;;;;;;9.10;2.50;;;;;;;;;;4884416;29;20887;-44
2022/09/15 03:49:44;;;;;;;10.00;3.00;;;;;;;;;;4895708;29;20684;-43
2022/09/15 03:52:11;;;;;;;10.07;2.93;;;;;;;;;;4890042;29;20881;-43
2022/09/15 03:54:37;;;;;;;9.57;3.50;;;;;;;;;;4892847;28;20207;-43
2022/09/15 03:57:03;;;;;;;9.43;2.57;;;;;;;;;;4891978;29;20187;-43
2022/09/15 03:59:29;;;;;;;11.57;2.87;;;;;;;;;;4890356;29;20524;-43
2022/09/15 04:01:55;;;;;;;8.53;2.63;;;;;;;;;;4889559;29;20353;-43
2022/09/15 04:04:21;;;;;;;10.80;3.10;;;;;;;;;;4886209;29;20597;-43
2022/09/15 04:06:47;;;;;;;9.57;3.00;;;;;;;;;;4892547;28;20274;-44
2022/09/15 04:09:14;;;;;;;13.33;3.63;;;;;;;;;;4889257;29;20734;-44
2022/09/15 04:11:40;;;;;;;8.77;2.83;;;;;;;;;;4889257;29;20990;-43
2022/09/15 04:14:06;;;;;;;10.10;2.73;;;;;;;;;;4886796;29;20503;-43
2022/09/15 04:16:32;;;;;;;10.13;2.93;;;;;;;;;;4884998;29;20184;-44
2022/09/15 04:18:58;;;;;;;5.87;2.70;;;;;;;;;;4886393;29;20657;-43
2022/09/15 04:21:26;;;;;;;10.80;2.87;;;;;;;;;;4887331;28;20180;-44
2022/09/15 04:23:53;;;;;;;8.80;2.90;;;;;;;;;;4880229;29;21278;-44
2022/09/15 04:26:22;;;;;;;9.17;3.00;;;;;;;;;;4881760;29;20581;-44
2022/09/15 04:28:48;;;;;;;8.53;2.87;;;;;;;;;;4889084;29;21028;-44
2022/09/15 04:31:14;;;;;;;7.60;2.67;;;;;;;;;;4889013;29;20184;-44
2022/09/15 04:33:42;;;;;;;10.20;2.83;;;;;;;;;;4889078;29;20575;-44
2022/09/15 04:36:09;;;;;;;13.63;3.00;;;;;;;;;;4884899;29;20180;-44
2022/09/15 04:38:35;;;;;;;15.30;3.67;;;;;;;;;;4891531;29;20184;-44
2022/09/15 04:41:02;;;;;;;9.83;3.53;;;;;;;;;;4890613;29;20668;-44
2022/09/15 04:43:29;;;;;;;8.43;2.80;;;;;;;;;;4889654;29;20256;-44
2022/09/15 04:45:55;;;;;;;11.23;3.40;;;;;;;;;;4883431;29;20429;-44
2022/09/15 04:48:22;;;;;;;10.47;3.60;;;;;;;;;;4887597;29;20611;-43
2022/09/15 04:50:48;;;;;;;12.57;3.50;;;;;;;;;;4892043;29;20392;-44
2022/09/15 04:53:14;;;;;;;11.50;3.63;;;;;;;;;;4891585;29;20326;-44
2022/09/15 04:55:41;;;;;;;7.07;3.10;;;;;;;;;;4900038;28;20180;-44
2022/09/15 04:58:07;;;;;;;8.53;3.03;;;;;;;;;;4892892;29;20770;-44
2022/09/15 05:00:40;;;;;;;15.73;3.73;;;;;;;;;;4888347;28;20239;-44
2022/09/15 05:03:07;;;;;;;9.57;3.40;;;;;;;;;;4899352;29;20906;-44
2022/09/15 05:05:33;;;;;;;10.33;4.10;;;;;;;;;;4895053;29;20618;-44
2022/09/15 05:07:59;;;;;;;7.07;3.10;;;;;;;;;;4893934;28;20636;-44
2022/09/15 05:10:26;;;;;;;14.40;3.80;;;;;;;;;;4892180;29;20461;-44
2022/09/15 05:12:53;;;;;;;9.13;3.47;;;;;;;;;;4892912;29;20246;-44
2022/09/15 05:15:19;;;;;;;13.00;3.60;;;;;;;;;;4891747;29;20518;-44
2022/09/15 05:17:46;;;;;;;17.37;3.80;;;;;;;;;;4892912;29;20172;-43
2022/09/15 05:20:12;;;;;;;11.27;4.10;;;;;;;;;;4888592;29;20705;-44
2022/09/15 05:22:38;;;;;;;13.67;3.73;;;;;;;;;;4892237;29;20191;-44
2022/09/15 05:25:04;;;;;;;10.10;3.33;;;;;;;;;;4884604;29;20673;-44
2022/09/15 05:27:34;;;;;;;16.83;4.53;;;;;;;;;;4891183;29;20180;-44
2022/09/15 05:30:00;;;;;;;11.83;3.87;;;;;;;;;;4892450;29;20822;-44
2022/09/15 05:32:26;;;;;;;14.73;3.67;;;;;;;;;;4886326;29;20248;-44
2022/09/15 05:34:52;;;;;;;9.43;3.57;;;;;;;;;;4885727;29;20199;-43
2022/09/15 05:37:18;;;;;;;14.63;4.37;;;;;;;;;;4892611;29;20887;-42
2022/09/15 05:39:44;;;;;;;9.27;3.80;;;;;;;;;;4895952;29;20184;-44
2022/09/15 05:42:10;;;;;;;12.40;3.50;;;;;;;;;;4898252;29;20444;-44
2022/09/15 05:44:37;;;;;;;15.57;4.03;;;;;;;;;;4896507;29;21400;-44
2022/09/15 05:47:03;;;;;;;15.30;3.83;;;;;;;;;;4889913;29;21030;-44
2022/09/15 05:49:30;;;;;;;10.93;3.60;;;;;;;;;;4895158;29;20424;-44
2022/09/15 05:51:56;;;;;;;12.43;4.00;;;;;;;;;;4895708;29;20184;-44
2022/09/15 05:54:22;;;;;;;17.53;4.93;;;;;;;;;;4894895;28;20539;-44
2022/09/15 05:56:48;;;;;;;11.80;4.03;;;;;;;;;;4898060;28;20381;-44
2022/09/15 05:59:14;;;;;;;10.27;4.07;;;;;;;;;;4896209;29;20176;-44
2022/09/15 06:01:40;;;;;;;12.93;4.07;;;;;;;;;;4892806;29;20275;-44
2022/09/15 06:04:06;;;;;;;13.77;4.37;;;;;;;;;;4896475;29;20175;-44
2022/09/15 06:06:32;;;;;;;12.67;3.97;;;;;;;;;;4891047;29;20183;-44
2022/09/15 06:08:59;;;;;;;15.10;4.93;;;;;;;;;;4899485;29;20188;-44
2022/09/15 06:11:29;;;;;;;8.07;3.50;;;;;;;;;;4894644;29;20621;-43
2022/09/15 06:13:55;;;;;;;15.07;4.37;;;;;;;;;;4891122;29;20494;-44
2022/09/15 06:16:22;;;;;;;10.90;3.57;;;;;;;;;;4885741;29;20931;-44
2022/09/15 06:18:50;;;;;;;11.63;3.80;;;;;;;;;;4893583;29;20657;-44
2022/09/15 06:21:20;;;;;;;17.37;4.50;;;;;;;;;;4894342;29;20211;-44
2022/09/15 06:23:46;;;;;;;17.80;4.80;;;;;;;;;;4894523;29;20474;-44
2022/09/15 06:26:14;;;;;;;13.20;4.27;;;;;;;;;;4895647;29;20203;-44
2022/09/15 06:28:41;;;;;;;16.03;4.47;;;;;;;;;;4893625;29;20828;-42
2022/09/15 06:31:14;;;;;;;13.03;4.10;;;;;;;;;;4896008;29;20197;-44
2022/09/15 06:33:43;;;;;;;14.70;4.63;;;;;;;;;;4888486;29;20689;-44
2022/09/15 06:36:10;;;;;;;18.23;4.47;;;;;;;;;;4894686;29;20195;-44
2022/09/15 06:38:37;;;;;;;19.20;5.50;;;;;;;;;;4890910;29;20770;-44
2022/09/15 06:41:04;;;;;;;17.20;5.13;;;;;;;;;;4897822;29;20589;-44
2022/09/15 06:43:31;;;;;;;23.67;5.77;;;;;;;;;;4893158;29;20386;-44
2022/09/15 06:46:03;;;;;;;21.23;5.17;;;;;;;;;;4892004;29;20630;-44
2022/09/15 06:48:31;;;;;;;12.17;4.83;;;;;;;;;;4892089;29;20263;-44
2022/09/15 06:50:57;;;;;;;19.03;5.13;;;;;;;;;;4893347;28;20658;-44
2022/09/15 06:53:23;;;;;;;14.23;4.60;;;;;;;;;;4896858;29;20231;-44
2022/09/15 06:55:49;;;;;;;19.00;5.13;;;;;;;;;;4899499;29;20637;-44
2022/09/15 06:58:15;;;;;;;14.67;4.97;;;;;;;;;;4895242;29;20179;-44
2022/09/15 07:00:42;;;;;;;9.60;4.30;;;;;;;;;;4896342;29;20553;-44
2022/09/15 07:03:08;;;;;;;15.27;5.13;;;;;;;;;;4895380;29;20282;-44
2022/09/15 07:05:34;;;;;;;10.77;5.20;;;;;;;;;;4894536;29;20768;-44
2022/09/15 07:08:00;;;;;;;15.90;5.97;;;;;;;;;;4894934;29;20598;-44
2022/09/15 07:10:26;;;;;;;16.87;6.20;;;;;;;;;;4893703;28;20236;-42
2022/09/15 07:12:52;;;;;;;18.03;6.83;;;;;;;;;;4895566;28;20216;-44
2022/09/15 07:15:19;;;;;;;10.60;5.10;;;;;;;;;;4890696;29;20467;-44
2022/09/15 07:17:45;;;;;;;17.97;6.57;;;;;;;;;;4893916;29;20802;-44
2022/09/15 07:20:11;;;;;;;11.67;5.43;;;;;;;;;;4895582;29;20176;-44
2022/09/15 07:22:37;;;;;;;13.40;6.43;;;;;;;;;;4895671;29;20176;-44
2022/09/15 07:25:03;;;;;;;16.20;6.70;;;;;;;;;;4895780;29;20200;-44
2022/09/15 07:27:30;;;;;;;14.93;5.43;;;;;;;;;;4892004;29;20918;-44
2022/09/15 07:29:57;;;;;;;14.37;5.13;;;;;;;;;;4897556;29;20644;-44
2022/09/15 07:32:23;;;;;;;15.20;6.30;;;;;;;;;;4895511;29;20546;-44
2022/09/15 07:34:50;;;;;;;14.97;5.50;;;;;;;;;;4891816;28;20687;-44
2022/09/15 07:37:16;;;;;;;12.43;4.90;;;;;;;;;;4895052;29;20176;-44
2022/09/15 07:39:42;;;;;;;12.67;5.40;;;;;;;;;;4897736;29;20263;-45
2022/09/15 07:42:08;;;;;;;14.63;6.00;;;;;;;;;;4895429;29;20294;-45
2022/09/15 07:44:35;;;;;;;12.23;4.93;;;;;;;;;;4893148;29;20179;-45
2022/09/15 07:47:01;;;;;;;12.80;5.27;;;;;;;;;;4897784;29;20287;-44
2022/09/15 07:49:27;;;;;;;14.27;4.73;;;;;;;;;;4899873;28;20765;-45
2022/09/15 07:51:53;;;;;;;8.80;4.40;;;;;;;;;;4898383;29;20251;-45
2022/09/15 07:54:19;;;;;;;12.87;5.00;;;;;;;;;;4894905;29;20238;-45
2022/09/15 07:56:45;;;;;;;15.37;4.93;;;;;;;;;;4896842;29;20871;-45
2022/09/15 07:59:12;;;;;;;13.97;5.00;;;;;;;;;;4894830;29;20259;-45
2022/09/15 08:01:38;;;;;;;18.03;5.20;;;;;;;;;;4898874;29;20180;-44
2022/09/15 08:04:04;;;;;;;19.83;6.70;;;;;;;;;;4900200;28;20177;-45
2022/09/15 08:06:30;;;;;;;17.77;6.10;;;;;;;;;;4895453;29;20470;-45
2022/09/15 08:08:56;;;;;;;14.70;5.20;;;;;;;;;;4898934;29;20628;-44
2022/09/15 08:11:22;;;;;;;13.30;5.33;;;;;;;;;;4901991;29;20740;-45
2022/09/15 08:13:51;;;;;;;17.53;5.77;;;;;;;;;;4899183;29;20786;-45
2022/09/15 08:16:18;;;;;;;19.93;5.70;;;;;;;;;;4901423;29;20367;-44
2022/09/15 08:18:45;;;;;;;9.07;5.07;;;;;;;;;;4899675;28;20195;-45
2022/09/15 08:21:12;;;;;;;11.67;5.20;;;;;;;;;;4899743;28;20251;-45
2022/09/15 08:23:38;;;;;;;10.73;4.97;;;;;;;;;;4902423;29;20715;-45
2022/09/15 08:26:05;;;;;;;15.80;5.40;;;;;;;;;;4900689;28;20187;-45
2022/09/15 08:28:31;;;;;;;10.03;5.00;;;;;;;;;;4899784;29;20590;-45
2022/09/15 08:31:01;;;;;;;12.87;6.27;;;;;;;;;;4895465;29;20187;-43
2022/09/15 08:33:28;;;;;;;12.67;6.13;;;;;;;;;;4897426;28;20196;-43
2022/09/15 08:35:55;;;;;;;13.73;5.97;;;;;;;;;;4901974;29;20537;-43
2022/09/15 08:38:21;;;;;;;13.57;5.63;;;;;;;;;;4901212;29;20184;-43
2022/09/15 08:40:47;;;;;;;20.47;5.20;;;;;;;;;;4899935;29;20570;-43
2022/09/15 08:43:18;;;;;;;16.47;5.93;;;;;;;;;;4900050;29;20993;-43
2022/09/15 08:45:49;;;;;;;17.00;5.80;;;;;;;;;;4895054;29;20515;-43
2022/09/15 08:48:16;;;;;;;14.40;5.40;;;;;;;;;;4893714;29;20558;-43
2022/09/15 08:50:44;;;;;;;13.73;5.13;;;;;;;;;;4899643;29;21791;-43
2022/09/15 08:53:16;;;;;;;9.90;4.87;;;;;;;;;;4897004;29;20200;-43
2022/09/15 08:55:48;;;;;;;18.97;6.40;;;;;;;;;;4895907;29;20259;-43
2022/09/15 08:58:17;;;;;;;16.20;6.10;;;;;;;;;;4897191;29;20173;-43
2022/09/15 09:00:45;;;;;;;15.03;6.20;;;;;;;;;;4901743;29;20320;-43
2022/09/15 09:03:11;;;;;;;16.67;6.40;;;;;;;;;;4900583;28;20227;-43
2022/09/15 09:05:42;;;;;;;13.93;5.53;;;;;;;;;;4898528;29;20888;-43
2022/09/15 09:08:08;;;;;;;18.27;5.57;;;;;;;;;;4900796;29;20660;-43
2022/09/15 09:10:34;;;;;;;12.87;4.37;;;;;;;;;;4901136;29;20402;-43
2022/09/15 09:13:03;;;;;;;13.60;5.37;;;;;;;;;;4903090;29;20231;-43
2022/09/15 09:15:38;;;;;;;17.13;5.30;;;;;;;;;;4900097;29;20617;-43
2022/09/15 09:18:10;;;;;;;13.70;4.67;;;;;;;;;;4897881;29;20856;-43
2022/09/15 09:20:48;;;;;;;10.93;4.60;;;;;;;;;;4900135;28;20537;-43
2022/09/15 09:23:17;;;;;;;14.47;4.33;;;;;;;;;;4898314;29;20670;-43
2022/09/15 09:25:43;;;;;;;8.97;3.60;;;;;;;;;;4897520;29;20200;-43
2022/09/15 09:28:28;;;;;;;10.87;3.53;;;;;;;;;;4896307;29;20314;-43
2022/09/15 09:30:58;;;;;;;10.20;3.30;;;;;;;;;;4897008;29;20180;-43
2022/09/15 09:33:28;;;;;;;13.53;3.63;;;;;;;;;;4897277;29;20835;-43
2022/09/15 09:35:57;;;;;;;12.80;3.63;;;;;;;;;;4896770;29;20184;-43
2022/09/15 09:38:37;;;;;;;8.60;2.93;;;;;;;;;;4897308;29;20629;-42
2022/09/15 09:41:05;;;;;;;8.17;3.03;;;;;;;;;;4895741;29;20711;-43
2022/09/15 09:43:32;;;;;;;8.87;3.43;;;;;;;;;;4895348;29;20513;-43
2022/09/15 09:45:58;;;;;;;7.83;3.10;;;;;;;;;;4897283;29;20411;-43
2022/09/15 09:48:25;;;;;;;11.93;3.50;;;;;;;;;;4901769;29;20180;-42
2022/09/15 09:50:51;;;;;;;14.60;4.33;;;;;;;;;;4897787;29;20187;-43
2022/09/15 09:53:23;;;;;;;11.87;3.43;;;;;;;;;;4898128;29;20200;-43
2022/09/15 09:55:49;;;;;;;12.03;3.73;;;;;;;;;;4897213;29;20279;-43
2022/09/15 09:58:20;;;;;;;12.87;3.50;;;;;;;;;;4895337;29;20805;-43
2022/09/15 10:00:46;;;;;;;12.83;3.70;;;;;;;;;;4897294;28;20835;-43
2022/09/15 10:03:17;;;;;;;13.47;4.27;;;;;;;;;;4899695;29;20352;-43
2022/09/15 10:05:44;;;;;;;9.53;3.33;;;;;;;;;;4899775;29;20362;-43
2022/09/15 10:08:18;;;;;;;15.20;4.03;;;;;;;;;;4894848;29;20257;-43
2022/09/15 10:10:51;;;;;;;15.67;4.00;;;;;;;;;;4896631;29;20632;-43
2022/09/15 10:13:17;;;;;;;8.93;3.57;;;;;;;;;;4895486;29;20433;-43
2022/09/15 10:15:49;;;;;;;10.37;3.60;;;;;;;;;;4895536;29;20732;-43
2022/09/15 10:18:33;;;;;;;13.13;3.47;;;;;;;;;;4897421;29;20431;-43
2022/09/15 10:21:00;;;;;;;10.40;3.67;;;;;;;;;;4895847;29;20506;-44
2022/09/15 10:23:28;;;;;;;9.97;3.50;;;;;;;;;;4894890;28;20771;-43
2022/09/15 10:25:55;;;;;;;8.83;2.80;;;;;;;;;;4891709;29;20197;-44
2022/09/15 10:28:22;;;;;;;11.23;3.83;;;;;;;;;;4896975;29;20191;-43
2022/09/15 10:30:58;;;;;;;11.23;3.80;;;;;;;;;;4900010;29;20488;-44
2022/09/15 10:33:25;;;;;;;14.43;3.17;;;;;;;;;;4898206;29;20440;-43
2022/09/15 10:35:52;;;;;;;9.03;2.63;;;;;;;;;;4887961;29;20281;-43
2022/09/15 10:38:25;;;;;;;7.77;3.33;;;;;;;;;;4891777;29;20625;-44
2022/09/15 10:40:55;;;;;;;11.43;4.00;;;;;;;;;;4895183;29;20236;-42
2022/09/15 10:43:47;;;;;;;11.70;3.33;;;;;;;;;;4893338;29;20184;-43
2022/09/15 10:46:13;;;;;;;10.37;3.07;;;;;;;;;;4894510;29;20192;-44
2022/09/15 10:49:05;;;;;;;12.10;4.30;;;;;;;;;;4895874;29;20553;-43
2022/09/15 10:51:34;;;;;;;13.70;3.23;;;;;;;;;;4897789;28;20195;-43
2022/09/15 10:54:24;;;;;;;11.70;3.13;;;;;;;;;;4894606;29;20228;-43
2022/09/15 10:56:54;;;;;;;10.23;3.00;;;;;;;;;;4883172;29;20183;-43
2022/09/15 10:59:31;;;;;;;9.77;2.87;;;;;;;;;;4887567;28;20169;-43
2022/09/15 11:02:15;;;;;;;16.40;3.70;;;;;;;;;;4886049;29;20637;-43
2022/09/15 11:04:44;;;;;;;10.60;3.10;;;;;;;;;;4886053;29;20408;-43
2022/09/15 11:07:14;;;;;;;9.67;3.27;;;;;;;;;;4894922;29;20395;-43
2022/09/15 11:09:49;;;;;;;11.93;3.17;;;;;;;;;;4897733;28;20757;-43
2022/09/15 11:12:15;;;;;;;14.57;4.03;;;;;;;;;;4893658;29;20190;-43
2022/09/15 11:14:42;;;;;;;12.67;3.07;;;;;;;;;;4894916;29;20242;-43
2022/09/15 11:17:27;;;;;;;12.97;3.73;;;;;;;;;;4892891;29;20180;-43
2022/09/15 11:20:11;;;;;;;8.87;3.10;;;;;;;;;;4889515;29;20445;-43
2022/09/15 11:22:44;;;;;;;12.53;3.70;;;;;;;;;;4890750;29;21138;-43
2022/09/15 11:25:10;;;;;;;12.37;3.73;;;;;;;;;;4888438;29;20194;-43
2022/09/15 11:27:40;;;;;;;9.40;3.40;;;;;;;;;;4882853;29;20397;-43
2022/09/15 11:30:10;;;;;;;14.97;4.23;;;;;;;;;;4884892;29;20838;-43
2022/09/15 11:32:41;;;;;;;14.77;4.00;;;;;;;;;;4894469;29;20180;-43
2022/09/15 11:35:16;;;;;;;18.13;4.40;;;;;;;;;;4897114;29;20923;-43
2022/09/15 11:37:48;;;;;;;16.03;4.33;;;;;;;;;;4892783;29;20195;-43
2022/09/15 11:40:16;;;;;;;14.03;4.23;;;;;;;;;;4893607;29;20291;-43
2022/09/15 11:42:48;;;;;;;16.97;4.00;;;;;;;;;;4891484;29;20173;-43
2022/09/15 11:45:21;;;;;;;24.93;4.90;;;;;;;;;;4891783;28;20359;-43
2022/09/15 11:47:49;;;;;;;20.80;5.70;;;;;;;;;;4887996;29;20589;-43
2022/09/15 11:50:16;;;;;;;24.97;5.80;;;;;;;;;;4886630;29;20176;-43
2022/09/15 11:52:43;;;;;;;29.77;6.20;;;;;;;;;;4887334;28;20199;-44
2022/09/15 11:55:15;;;;;;;31.73;6.30;;;;;;;;;;4885534;29;20196;-42
2022/09/15 11:57:44;;;;;;;37.03;7.03;;;;;;;;;;4886006;29;20193;-42
2022/09/15 12:00:12;;;;;;;31.60;6.03;;;;;;;;;;4884462;28;20888;-40
2022/09/15 12:02:51;;;;;;;17.60;3.53;;;;;;;;;;4888484;29;20181;-41
2022/09/15 12:05:22;;;;;;;16.40;3.50;;;;;;;;;;4887529;28;20183;-41
2022/09/15 12:07:58;;;;;;;13.97;3.37;;;;;;;;;;4884795;29;20180;-42
2022/09/15 12:10:33;;;;;;;9.67;2.60;;;;;;;;;;4886038;29;20268;-41
2022/09/15 12:13:00;;;;;;;6.90;1.90;;;;;;;;;;4887765;29;20192;-40
2022/09/15 12:15:26;;;;;;;10.97;2.37;;;;;;;;;;4886818;29;20363;-40
2022/09/15 12:18:01;;;;;;;9.50;1.73;;;;;;;;;;4880057;29;20176;-41
2022/09/15 12:20:38;;;;;;;8.40;2.33;;;;;;;;;;4878870;29;20217;-41
2022/09/15 12:23:15;;;;;;;6.43;2.17;;;;;;;;;;4876475;29;21090;-41
2022/09/15 12:25:47;;;;;;;8.53;1.90;;;;;;;;;;4881522;29;21544;-42
2022/09/15 12:28:25;;;;;;;6.30;1.63;;;;;;;;;;4885399;29;20219;-42
2022/09/15 12:31:10;;;;;;;7.47;1.90;;;;;;;;;;4879450;28;20807;-43
2022/09/15 12:33:42;;;;;;;7.47;2.00;;;;;;;;;;4884551;29;20558;-43
2022/09/15 12:36:27;;;;;;;8.60;1.77;;;;;;;;;;4882807;29;20506;-43
2022/09/15 12:38:53;;;;;;;7.80;2.07;;;;;;;;;;4881956;29;20537;-43
2022/09/15 12:41:20;;;;;;;5.77;1.60;;;;;;;;;;4883111;29;20199;-42
2022/09/15 12:43:56;;;;;;;5.27;1.73;;;;;;;;;;4885225;29;20759;-43
2022/09/15 12:46:23;;;;;;;7.27;1.60;;;;;;;;;;4896727;28;20566;-44
2022/09/15 12:48:50;;;;;;;8.17;2.00;;;;;;;;;;4881927;29;20180;-43
2022/09/15 12:51:24;;;;;;;6.53;1.80;;;;;;;;;;4883086;29;20414;-44
2022/09/15 12:53:50;;;;;;;7.90;2.00;;;;;;;;;;4883145;29;20227;-43
2022/09/15 12:56:24;;;;;;;5.30;1.83;;;;;;;;;;4880817;29;20402;-44
2022/09/15 12:58:51;;;;;;;11.73;2.43;;;;;;;;;;4889206;29;20429;-44
2022/09/15 13:01:23;;;;;;;6.87;2.10;;;;;;;;;;4881347;29;20302;-43
2022/09/15 13:03:49;;;;;;;9.27;2.67;;;;;;;;;;4874901;29;20602;-44
2022/09/15 13:06:25;;;;;;;8.33;2.07;;;;;;;;;;4879781;29;20722;-43
2022/09/15 13:09:14;;;;;;;9.67;2.37;;;;;;;;;;4882788;29;20533;-44
2022/09/15 13:11:42;;;;;;;10.87;2.20;;;;;;;;;;4884020;29;20294;-42
2022/09/15 13:14:27;;;;;;;9.37;2.53;;;;;;;;;;4883763;29;20207;-44
2022/09/15 13:17:01;;;;;;;13.10;2.63;;;;;;;;;;4891593;29;20282;-43
2022/09/15 13:19:40;;;;;;;8.93;2.20;;;;;;;;;;4897032;29;20442;-43
2022/09/15 13:22:12;;;;;;;9.70;2.80;;;;;;;;;;4893667;29;20247;-43
2022/09/15 13:24:42;;;;;;;6.77;2.40;;;;;;;;;;4892379;29;20244;-43
2022/09/15 13:27:08;;;;;;;8.13;2.10;;;;;;;;;;4883880;29;20180;-44
2022/09/15 13:29:38;;;;;;;10.80;2.77;;;;;;;;;;4894623;29;20417;-44
2022/09/15 13:32:23;;;;;;;8.63;2.27;;;;;;;;;;4892827;29;20744;-43
2022/09/15 13:35:10;;;;;;;9.70;2.43;;;;;;;;;;4892902;29;20669;-43
2022/09/15 13:37:53;;;;;;;6.10;2.33;;;;;;;;;;4902980;28;20215;-44
2022/09/15 13:40:37;;;;;;;8.33;2.80;;;;;;;;;;4896620;29;20171;-44
2022/09/15 13:43:03;;;;;;;7.57;1.83;;;;;;;;;;4893373;29;21013;-44
2022/09/15 13:45:32;;;;;;;10.17;2.50;;;;;;;;;;4895995;29;20390;-43
2022/09/15 13:48:09;;;;;;;11.57;3.00;;;;;;;;;;4893157;29;20423;-44
2022/09/15 13:50:40;;;;;;;11.10;2.70;;;;;;;;;;4884570;29;20193;-44
2022/09/15 13:53:19;;;;;;;8.10;2.27;;;;;;;;;;4884632;28;20227;-44
2022/09/15 13:55:45;;;;;;;8.43;2.70;;;;;;;;;;4887649;28;20176;-44
2022/09/15 13:58:13;;;;;;;12.97;3.60;;;;;;;;;;4888711;29;20281;-44
2022/09/15 14:00:53;;;;;;;10.53;2.90;;;;;;;;;;4882218;29;20832;-45
2022/09/15 14:03:38;;;;;;;14.07;3.23;;;;;;;;;;4882040;29;20501;-44
2022/09/15 14:06:12;;;;;;;13.40;3.20;;;;;;;;;;4884123;29;20641;-44
2022/09/15 14:08:39;;;;;;;13.60;2.97;;;;;;;;;;4884750;29;20215;-44
2022/09/15 14:11:07;;;;;;;13.17;2.90;;;;;;;;;;4885762;29;20838;-44
2022/09/15 14:13:35;;;;;;;14.60;3.27;;;;;;;;;;4883134;29;20549;-44
2022/09/15 14:16:19;;;;;;;13.27;3.20;;;;;;;;;;4884644;29;20177;-44
2022/09/15 14:18:46;;;;;;;15.33;3.67;;;;;;;;;;4882651;29;21841;-44
2022/09/15 14:21:16;;;;;;;17.47;4.13;;;;;;;;;;4885492;29;20526;-44
2022/09/15 14:23:46;;;;;;;14.37;3.67;;;;;;;;;;4884304;29;20553;-44
2022/09/15 14:26:14;;;;;;;17.77;4.00;;;;;;;;;;4882600;29;20204;-44
2022/09/15 14:28:40;;;;;;;13.20;3.17;;;;;;;;;;4886817;29;20687;-44
2022/09/15 14:31:07;;;;;;;15.47;3.47;;;;;;;;;;4885156;29;20653;-44
2022/09/15 14:33:37;;;;;;;14.87;3.53;;;;;;;;;;4886823;29;20208;-44
2022/09/15 14:36:11;;;;;;;13.87;3.53;;;;;;;;;;4884332;29;20180;-45
2022/09/15 14:38:37;;;;;;;16.53;3.27;;;;;;;;;;4879495;29;20179;-44
2022/09/15 14:41:04;;;;;;;15.40;3.67;;;;;;;;;;4884521;29;20262;-45
2022/09/15 14:43:31;;;;;;;15.90;4.07;;;;;;;;;;4885732;29;20290;-45
2022/09/15 14:46:14;;;;;;;16.43;3.37;;;;;;;;;;4887144;29;21256;-45